Time;durP1;ratioP1;P1;durP2;ratioP2;P2;SDS_P1;SDS_P2;PMS_P1;PMS_P2;Temp;Humidity;BMP_temperature;BMP_pressure;BME280_temperature;BME280_humidity;BME280_pressure;Samples;Min_cycle;Max_cycle;Signal;HPM_P1;HPM_P2
2022/02/21 00:02:10;;;;;;;1.65;0.40;;;;;;;9.71;100.00;97914.19;5217015;28;20351;-78
2022/02/21 00:04:40;;;;;;;2.65;0.63;;;;;;;9.71;100.00;97919.41;5221270;28;20036;-77
2022/02/21 00:07:11;;;;;;;4.07;0.88;;;;;;;9.57;100.00;97896.97;5224926;28;20107;-76
2022/02/21 00:09:41;;;;;;;2.95;0.60;;;;;;;9.50;100.00;97895.75;5220504;28;20037;-77
2022/02/21 00:12:11;;;;;;;3.90;0.60;;;;;;;9.48;100.00;97878.56;5218990;28;20283;-78
2022/02/21 00:14:41;;;;;;;4.10;0.73;;;;;;;9.44;100.00;97872.75;5217916;28;20591;-78
2022/02/21 00:17:13;;;;;;;2.15;0.50;;;;;;;9.40;100.00;97860.06;5224347;28;20078;-77
2022/02/21 00:19:43;;;;;;;1.45;0.50;;;;;;;9.45;100.00;97834.50;5217656;28;20021;-78
2022/02/21 00:22:14;;;;;;;2.88;0.70;;;;;;;9.47;100.00;97843.84;5215675;28;20029;-77
2022/02/21 00:24:44;;;;;;;3.22;0.50;;;;;;;9.53;100.00;97840.81;5218454;28;20447;-77
2022/02/21 00:27:14;;;;;;;4.18;0.45;;;;;;;9.54;100.00;97828.59;5215761;28;20301;-78
2022/02/21 00:29:44;;;;;;;1.58;0.32;;;;;;;9.59;100.00;97827.28;5217177;28;20025;-78
2022/02/21 00:32:15;;;;;;;3.10;0.50;;;;;;;9.63;100.00;97820.91;5219327;28;20536;-77
2022/02/21 00:34:45;;;;;;;1.23;0.40;;;;;;;9.64;100.00;97812.13;5220651;28;20025;-78
2022/02/21 00:37:16;;;;;;;4.38;0.70;;;;;;;9.67;100.00;97800.66;5222237;28;20091;-78
2022/02/21 00:39:46;;;;;;;3.13;0.57;;;;;;;9.63;100.00;97800.03;5219632;28;20035;-78
2022/02/21 00:42:21;;;;;;;3.65;0.60;;;;;;;9.68;100.00;97804.91;5213505;28;20037;-77
2022/02/21 00:44:57;;;;;;;2.95;0.60;;;;;;;9.70;100.00;97797.81;5219720;28;20035;-78
2022/02/21 00:47:28;;;;;;;2.92;0.77;;;;;;;9.71;100.00;97815.09;5221550;28;20037;-78
2022/02/21 00:49:59;;;;;;;2.97;0.40;;;;;;;9.74;100.00;97833.13;5220261;28;20029;-78
2022/02/21 00:52:29;;;;;;;1.95;0.45;;;;;;;9.84;100.00;98040.94;5214957;28;20091;-77
2022/02/21 00:54:59;;;;;;;0.20;0.10;;;;;;;8.41;100.00;98130.13;5215947;28;20043;-77
2022/02/21 00:57:29;;;;;;;3.33;0.50;;;;;;;6.95;100.00;98122.22;5213000;28;20056;-76
2022/02/21 01:00:00;;;;;;;3.47;0.52;;;;;;;6.00;100.00;98120.97;5210251;28;20017;-76
2022/02/21 01:02:32;;;;;;;3.35;0.40;;;;;;;5.86;100.00;98100.19;5213779;28;20029;-77
2022/02/21 01:05:03;;;;;;;3.17;0.50;;;;;;;5.96;100.00;98080.63;5220224;28;20053;-77
2022/02/21 01:07:33;;;;;;;3.45;0.55;;;;;;;6.12;100.00;98065.88;5217267;28;20334;-78
2022/02/21 01:10:05;;;;;;;4.25;0.77;;;;;;;6.18;100.00;98073.28;5215516;28;20029;-77
2022/02/21 01:12:36;;;;;;;2.58;0.60;;;;;;;6.31;100.00;98074.25;5216756;28;20535;-77
2022/02/21 01:15:09;;;;;;;2.72;0.30;;;;;;;6.40;100.00;98086.69;5216406;28;20088;-78
2022/02/21 01:17:43;;;;;;;1.15;0.25;;;;;;;6.48;100.00;98095.69;5218724;28;20445;-77
2022/02/21 01:20:13;;;;;;;3.53;0.40;;;;;;;6.59;100.00;98115.81;5216924;28;20025;-77
2022/02/21 01:22:43;;;;;;;1.55;0.40;;;;;;;6.65;100.00;98105.91;5209060;28;20112;-77
2022/02/21 01:25:14;;;;;;;3.65;0.40;;;;;;;6.67;100.00;98113.56;5211634;28;20289;-77
2022/02/21 01:27:45;;;;;;;1.55;0.25;;;;;;;6.75;100.00;98108.78;5215543;28;20180;-77
2022/02/21 01:30:15;;;;;;;0.45;0.20;;;;;;;6.84;100.00;98103.03;5218135;28;20044;-78
2022/02/21 01:32:45;;;;;;;1.75;0.28;;;;;;;6.98;100.00;98101.28;5217252;28;20036;-77
2022/02/21 01:35:16;;;;;;;0.50;0.20;;;;;;;7.05;100.00;98114.69;5222041;28;20033;-77
2022/02/21 01:37:46;;;;;;;1.42;0.30;;;;;;;7.13;100.00;98117.69;5215523;28;20030;-77
2022/02/21 01:40:17;;;;;;;0.65;0.20;;;;;;;7.17;100.00;98108.78;5219822;28;20032;-78
2022/02/21 01:42:47;;;;;;;0.45;0.15;;;;;;;7.21;100.00;98105.06;5216839;28;20018;-77
2022/02/21 01:45:18;;;;;;;0.75;0.10;;;;;;;7.18;100.00;98115.63;5217004;28;20474;-77
2022/02/21 01:47:48;;;;;;;0.75;0.20;;;;;;;7.20;100.00;98134.53;5219721;28;20442;-77
2022/02/21 01:50:18;;;;;;;0.95;0.20;;;;;;;7.20;100.00;98124.16;5220616;28;20037;-77
2022/02/21 01:52:49;;;;;;;0.95;0.40;;;;;;;7.21;100.00;98115.44;5216533;28;20403;-78
2022/02/21 01:55:19;;;;;;;0.30;0.10;;;;;;;7.13;100.00;98118.50;5220510;28;20028;-77
2022/02/21 01:57:50;;;;;;;1.30;0.35;;;;;;;7.26;100.00;98121.22;5216926;28;20087;-78
2022/02/21 02:00:21;;;;;;;0.70;0.20;;;;;;;7.20;100.00;98124.16;5217693;28;20020;-77
2022/02/21 02:02:51;;;;;;;1.77;0.20;;;;;;;7.22;100.00;98148.28;5218664;28;20378;-78
2022/02/21 02:05:23;;;;;;;0.45;0.20;;;;;;;7.19;100.00;98140.66;5222417;28;20040;-78
2022/02/21 02:07:53;;;;;;;0.73;0.25;;;;;;;7.22;100.00;98136.94;5217199;28;20025;-77
2022/02/21 02:10:24;;;;;;;0.28;0.20;;;;;;;7.17;100.00;98143.38;5215107;28;20037;-77
2022/02/21 02:12:55;;;;;;;0.65;0.20;;;;;;;7.20;100.00;98139.75;5216589;28;20104;-78
2022/02/21 02:15:25;;;;;;;1.02;0.13;;;;;;;7.22;100.00;98143.06;5216869;28;20454;-78
2022/02/21 02:17:56;;;;;;;2.15;0.20;;;;;;;7.20;100.00;98173.50;5217724;28;20029;-77
2022/02/21 02:20:26;;;;;;;1.10;0.20;;;;;;;7.18;100.00;98152.84;5219193;28;20033;-77
2022/02/21 02:22:57;;;;;;;0.82;0.20;;;;;;;7.22;100.00;98149.13;5215059;28;20025;-77
2022/02/21 02:25:27;;;;;;;1.02;0.20;;;;;;;7.16;100.00;98172.03;5217662;28;20028;-77
2022/02/21 02:27:57;;;;;;;0.70;0.30;;;;;;;7.13;100.00;98170.44;5214732;28;20037;-78
2022/02/21 02:30:28;;;;;;;0.50;0.20;;;;;;;7.12;100.00;98178.34;5217681;28;20029;-78
2022/02/21 02:32:58;;;;;;;1.55;0.30;;;;;;;7.12;100.00;98186.13;5213948;28;20025;-78
2022/02/21 02:35:32;;;;;;;0.50;0.10;;;;;;;7.12;100.00;98189.53;5220263;28;20439;-77
2022/02/21 02:38:02;;;;;;;0.82;0.30;;;;;;;7.03;100.00;98177.13;5214616;28;20491;-78
2022/02/21 02:40:34;;;;;;;0.88;0.30;;;;;;;7.06;100.00;98200.31;5215736;28;20180;-77
2022/02/21 02:43:04;;;;;;;1.20;0.30;;;;;;;7.01;100.00;98183.31;5212713;28;20026;-77
2022/02/21 02:45:36;;;;;;;0.20;0.15;;;;;;;6.98;100.00;98191.31;5215480;28;20029;-77
2022/02/21 02:48:06;;;;;;;2.72;0.45;;;;;;;6.91;100.00;98205.56;5215353;28;20036;-78
2022/02/21 02:50:37;;;;;;;2.40;0.88;;;;;;;6.78;100.00;98189.88;5216886;28;20029;-77
2022/02/21 02:53:07;;;;;;;1.90;0.38;;;;;;;6.69;100.00;98206.00;5218762;28;20414;-78
2022/02/21 02:55:38;;;;;;;0.65;0.30;;;;;;;6.60;100.00;98211.69;5219668;28;20067;-77
2022/02/21 02:58:08;;;;;;;1.60;0.50;;;;;;;6.57;100.00;98211.88;5218520;28;20075;-77
2022/02/21 03:00:38;;;;;;;2.63;0.57;;;;;;;6.44;100.00;98184.13;5219028;28;20642;-77
2022/02/21 03:03:09;;;;;;;1.48;0.35;;;;;;;6.49;100.00;98197.66;5221727;28;20043;-77
2022/02/21 03:05:39;;;;;;;0.80;0.30;;;;;;;6.52;100.00;98197.47;5221718;28;20029;-77
2022/02/21 03:08:09;;;;;;;0.95;0.20;;;;;;;6.48;100.00;98204.63;5219141;28;20020;-77
2022/02/21 03:10:40;;;;;;;1.65;0.40;;;;;;;6.36;100.00;98210.50;5217668;28;20068;-78
2022/02/21 03:13:11;;;;;;;0.90;0.30;;;;;;;6.33;100.00;98223.66;5217513;28;20036;-78
2022/02/21 03:15:41;;;;;;;5.13;0.60;;;;;;;6.26;100.00;98219.72;5218229;28;20041;-77
2022/02/21 03:18:11;;;;;;;1.58;0.45;;;;;;;6.33;100.00;98212.44;5216930;28;20033;-77
2022/02/21 03:20:41;;;;;;;1.45;0.32;;;;;;;6.21;100.00;98218.28;5218941;28;20389;-77
2022/02/21 03:23:12;;;;;;;2.08;0.40;;;;;;;6.20;100.00;98227.00;5216081;28;20064;-78
2022/02/21 03:25:43;;;;;;;5.90;0.60;;;;;;;6.20;100.00;98216.63;5219866;28;20120;-77
2022/02/21 03:28:13;;;;;;;5.78;0.80;;;;;;;6.12;100.00;98211.03;5218331;28;20025;-76
2022/02/21 03:30:44;;;;;;;2.75;0.63;;;;;;;6.10;100.00;98229.25;5217301;28;20028;-77
2022/02/21 03:33:14;;;;;;;4.82;0.73;;;;;;;6.00;100.00;98225.50;5219769;28;20052;-78
2022/02/21 03:35:44;;;;;;;5.15;0.88;;;;;;;5.94;100.00;98245.75;5214033;28;20029;-77
2022/02/21 03:38:15;;;;;;;3.88;0.52;;;;;;;5.90;100.00;98249.44;5219774;28;20041;-76
2022/02/21 03:40:47;;;;;;;6.25;0.68;;;;;;;5.94;100.00;98274.25;5218690;28;20036;-78
2022/02/21 03:43:18;;;;;;;5.13;0.70;;;;;;;5.95;100.00;98309.63;5216691;22;20034;-81
2022/02/21 03:45:48;;;;;;;3.08;0.70;;;;;;;5.36;100.00;98332.56;5194151;28;20499;-81
2022/02/21 03:48:18;;;;;;;2.15;0.50;;;;;;;4.80;100.00;98338.88;5193651;28;20030;-79
2022/02/21 03:50:49;;;;;;;5.60;0.73;;;;;;;4.64;100.00;98343.94;5195321;28;20075;-81
2022/02/21 03:53:19;;;;;;;4.80;0.80;;;;;;;4.51;100.00;98329.09;5193213;28;20076;-79
2022/02/21 03:55:49;;;;;;;4.97;0.73;;;;;;;4.49;100.00;98326.56;5196340;28;20029;-79
2022/02/21 03:58:20;;;;;;;4.32;1.10;;;;;;;4.43;100.00;98321.69;5194348;28;20489;-80
2022/02/21 04:00:50;;;;;;;2.17;0.65;;;;;;;4.53;100.00;98325.53;5196652;28;20022;-79
2022/02/21 04:03:20;;;;;;;7.70;1.27;;;;;;;4.61;100.00;98328.56;5193820;28;20025;-79
2022/02/21 04:05:50;;;;;;;6.53;0.95;;;;;;;4.59;100.00;98339.88;5197717;28;20022;-79
2022/02/21 04:08:21;;;;;;;6.32;0.88;;;;;;;4.66;100.00;98336.13;5196402;28;20025;-82
2022/02/21 04:10:51;;;;;;;6.57;1.00;;;;;;;4.73;100.00;98343.50;5195966;28;20039;-79
2022/02/21 04:13:21;;;;;;;7.13;1.23;;;;;;;4.75;100.00;98357.19;5193292;28;20032;-79
2022/02/21 04:15:51;;;;;;;10.57;1.30;;;;;;;4.80;100.00;98347.47;5198067;28;20029;-80
2022/02/21 04:18:22;;;;;;;7.55;1.50;;;;;;;4.84;100.00;98353.34;5191674;28;20022;-79
2022/02/21 04:20:52;;;;;;;9.63;1.35;;;;;;;4.81;100.00;98350.91;5196787;28;20387;-80
2022/02/21 04:23:23;;;;;;;9.65;1.30;;;;;;;4.79;100.00;98356.13;5192341;28;20044;-79
2022/02/21 04:25:53;;;;;;;7.10;1.02;;;;;;;4.82;100.00;98348.22;5196107;28;20083;-80
2022/02/21 04:28:23;;;;;;;8.43;1.25;;;;;;;4.86;100.00;98354.94;5194122;28;20045;-80
2022/02/21 04:30:54;;;;;;;8.40;1.00;;;;;;;4.94;100.00;98352.81;5196581;28;20025;-80
2022/02/21 04:33:24;;;;;;;7.15;1.50;;;;;;;4.95;100.00;98356.25;5196439;28;20029;-81
2022/02/21 04:35:54;;;;;;;7.00;1.25;;;;;;;4.89;100.00;98359.97;5194734;28;20025;-80
2022/02/21 04:38:24;;;;;;;12.98;1.67;;;;;;;5.00;100.00;98372.38;5202166;28;20116;-79
2022/02/21 04:40:55;;;;;;;8.48;1.50;;;;;;;4.94;100.00;98368.34;5190441;28;20041;-79
2022/02/21 04:43:26;;;;;;;6.18;1.20;;;;;;;5.05;100.00;98376.44;5193355;28;20490;-80
2022/02/21 04:45:56;;;;;;;14.40;1.23;;;;;;;5.00;100.00;98377.56;5197464;28;20026;-79
2022/02/21 04:48:28;;;;;;;7.25;1.38;;;;;;;5.02;100.00;98366.25;5192221;28;20036;-78
2022/02/21 04:50:58;;;;;;;7.10;1.20;;;;;;;4.99;100.00;98383.66;5195650;28;20026;-79
2022/02/21 04:53:28;;;;;;;6.00;1.25;;;;;;;5.02;100.00;98391.25;5192709;28;20617;-79
2022/02/21 04:55:59;;;;;;;8.32;1.10;;;;;;;4.98;100.00;98398.31;5194169;28;20033;-78
2022/02/21 04:58:29;;;;;;;7.40;1.08;;;;;;;4.94;100.00;98394.22;5194600;28;20029;-79
2022/02/21 05:01:00;;;;;;;5.53;1.00;;;;;;;4.90;100.00;98397.00;5196250;28;20029;-80
2022/02/21 05:03:30;;;;;;;8.85;1.33;;;;;;;4.88;100.00;98391.94;5193784;28;20025;-79
2022/02/21 05:06:00;;;;;;;6.82;1.00;;;;;;;4.88;100.00;98411.78;5200280;28;20034;-80
2022/02/21 05:08:33;;;;;;;11.27;1.33;;;;;;;4.87;100.00;98405.78;5199660;28;20411;-78
2022/02/21 05:11:03;;;;;;;7.15;1.10;;;;;;;4.90;100.00;98420.31;5193689;28;20388;-80
2022/02/21 05:13:36;;;;;;;9.70;1.48;;;;;;;4.83;100.00;98412.00;5193923;28;20029;-80
2022/02/21 05:16:06;;;;;;;10.40;1.40;;;;;;;4.80;100.00;98421.66;5194628;28;20515;-79
2022/02/21 05:18:37;;;;;;;6.78;1.27;;;;;;;4.81;100.00;98436.28;5193130;28;20109;-78
2022/02/21 05:21:07;;;;;;;7.03;1.10;;;;;;;4.81;100.00;98426.75;5193868;28;20021;-80
2022/02/21 05:23:37;;;;;;;11.98;1.30;;;;;;;4.85;99.01;98442.97;5193290;28;20090;-79
2022/02/21 05:26:08;;;;;;;10.38;1.38;;;;;;;4.89;99.42;98453.13;5189853;28;20383;-80
2022/02/21 05:28:38;;;;;;;13.63;1.58;;;;;;;4.77;99.71;98445.91;5195171;28;20044;-80
2022/02/21 05:31:08;;;;;;;8.05;1.42;;;;;;;4.77;100.00;98445.91;5194030;28;20523;-80
2022/02/21 05:33:38;;;;;;;7.03;1.00;;;;;;;4.75;100.00;98450.31;5196376;28;20506;-79
2022/02/21 05:36:09;;;;;;;8.98;1.17;;;;;;;4.68;100.00;98459.28;5198238;28;20276;-80
2022/02/21 05:38:39;;;;;;;6.38;1.20;;;;;;;4.68;100.00;98454.13;5198629;28;20096;-80
2022/02/21 05:41:10;;;;;;;12.82;1.48;;;;;;;4.67;100.00;98469.69;5195940;28;20033;-79
2022/02/21 05:43:41;;;;;;;11.00;1.23;;;;;;;4.69;100.00;98471.31;5193543;28;20383;-80
2022/02/21 05:46:11;;;;;;;10.00;1.30;;;;;;;4.70;100.00;98485.06;5194768;28;20036;-80
2022/02/21 05:48:42;;;;;;;7.22;1.40;;;;;;;4.68;100.00;98481.72;5193925;28;20017;-79
2022/02/21 05:51:12;;;;;;;7.95;1.38;;;;;;;4.73;100.00;98492.69;5194644;28;20314;-79
2022/02/21 05:53:46;;;;;;;10.15;1.08;;;;;;;4.69;100.00;98486.84;5193717;28;20149;-80
2022/02/21 05:56:16;;;;;;;7.50;1.20;;;;;;;4.68;100.00;98498.09;5193329;28;20244;-79
2022/02/21 05:58:46;;;;;;;10.30;1.60;;;;;;;4.60;100.00;98497.59;5192914;28;20483;-80
2022/02/21 06:01:18;;;;;;;8.98;1.27;;;;;;;4.60;100.00;98518.28;5196097;28;20021;-80
2022/02/21 06:03:48;;;;;;;5.85;0.93;;;;;;;4.46;100.00;98535.31;5197138;28;20025;-80
2022/02/21 06:06:18;;;;;;;8.90;1.42;;;;;;;4.42;100.00;98547.53;5199097;28;20032;-79
2022/02/21 06:08:48;;;;;;;6.38;1.30;;;;;;;4.10;100.00;98558.41;5191402;28;20565;-79
2022/02/21 06:11:19;;;;;;;6.28;1.05;;;;;;;3.77;100.00;98580.44;5193955;28;20483;-80
2022/02/21 06:13:49;;;;;;;7.57;1.10;;;;;;;3.56;100.00;98575.28;5190825;28;20080;-80
2022/02/21 06:16:19;;;;;;;5.30;0.90;;;;;;;3.50;100.00;98585.06;5191292;28;20255;-80
2022/02/21 06:18:53;;;;;;;3.28;0.70;;;;;;;3.35;100.00;98554.66;5192771;28;20369;-80
2022/02/21 06:21:23;;;;;;;5.68;0.80;;;;;;;3.29;100.00;98560.06;5191951;28;20040;-78
2022/02/21 06:23:53;;;;;;;3.67;0.60;;;;;;;3.36;100.00;98556.34;5193176;28;20419;-80
2022/02/21 06:26:24;;;;;;;8.57;1.00;;;;;;;3.35;100.00;98568.41;5188509;28;20021;-80
2022/02/21 06:28:54;;;;;;;4.97;0.60;;;;;;;3.33;100.00;98580.53;5193072;28;20030;-80
2022/02/21 06:31:24;;;;;;;4.70;0.68;;;;;;;3.40;100.00;98578.56;5190694;28;20025;-79
2022/02/21 06:33:54;;;;;;;6.00;0.80;;;;;;;3.44;100.00;98580.09;5193336;28;20022;-81
2022/02/21 06:36:25;;;;;;;5.82;0.70;;;;;;;3.36;100.00;98582.97;5186205;28;20061;-81
2022/02/21 06:38:55;;;;;;;4.85;1.10;;;;;;;3.42;100.00;98593.09;5195505;28;20463;-80
2022/02/21 06:41:25;;;;;;;6.70;0.80;;;;;;;3.40;100.00;98591.47;5187268;28;20034;-78
2022/02/21 06:43:56;;;;;;;5.38;0.70;;;;;;;3.31;100.00;98578.91;5190958;28;20014;-80
2022/02/21 06:46:26;;;;;;;5.40;0.90;;;;;;;3.28;100.00;98590.19;5193080;28;20025;-80
2022/02/21 06:48:56;;;;;;;3.30;0.77;;;;;;;3.29;100.00;98601.34;5192824;28;20014;-82
2022/02/21 06:51:27;;;;;;;8.27;2.15;;;;;;;3.31;100.00;98599.53;5194834;28;20116;-84
2022/02/21 06:53:57;;;;;;;4.93;1.00;;;;;;;3.49;100.00;98601.41;5196694;28;20029;-82
2022/02/21 06:56:27;;;;;;;4.45;0.95;;;;;;;3.58;100.00;98608.81;5201686;28;20052;-82
2022/02/21 06:58:57;;;;;;;5.80;0.90;;;;;;;3.53;100.00;98605.59;5203325;28;20031;-83
2022/02/21 07:01:28;;;;;;;8.07;1.00;;;;;;;3.68;100.00;98610.97;5196206;28;20029;-82
2022/02/21 07:03:58;;;;;;;6.47;1.15;;;;;;;3.76;100.00;98603.78;5185848;28;20032;-83
2022/02/21 07:06:28;;;;;;;7.22;1.00;;;;;;;3.88;100.00;98603.25;5196064;28;20083;-83
2022/02/21 07:08:58;;;;;;;9.27;1.20;;;;;;;3.96;100.00;98609.81;5196498;28;20544;-83
2022/02/21 07:11:29;;;;;;;8.55;1.50;;;;;;;4.14;100.00;98593.53;5194966;28;20029;-84
2022/02/21 07:13:59;;;;;;;4.18;1.15;;;;;;;4.20;100.00;98595.88;5193839;28;20036;-83
2022/02/21 07:16:31;;;;;;;9.73;1.20;;;;;;;4.15;100.00;98602.16;5202610;28;20081;-84
2022/02/21 07:19:01;;;;;;;5.22;0.93;;;;;;;4.18;100.00;98599.44;5199683;28;20028;-84
2022/02/21 07:21:32;;;;;;;7.25;1.40;;;;;;;4.19;100.00;98608.84;5194213;28;20030;-82
2022/02/21 07:24:02;;;;;;;8.30;1.40;;;;;;;4.14;100.00;98605.63;5200884;28;20033;-83
2022/02/21 07:26:33;;;;;;;7.20;1.00;;;;;;;4.35;100.00;98617.66;5197754;28;20025;-84
2022/02/21 07:29:04;;;;;;;8.82;1.00;;;;;;;4.31;100.00;98606.59;5198242;28;20475;-84
2022/02/21 07:31:35;;;;;;;9.02;1.20;;;;;;;4.51;99.94;98618.69;5199659;28;20038;-83
2022/02/21 07:34:06;;;;;;;8.75;1.13;;;;;;;4.72;99.49;98621.19;5197944;28;20037;-83
2022/02/21 07:36:36;;;;;;;9.77;1.15;;;;;;;5.50;94.25;98617.59;5197524;28;20025;-83
2022/02/21 07:39:06;;;;;;;5.72;1.08;;;;;;;5.75;91.40;98613.78;5201976;28;20022;-84
2022/02/21 07:41:39;;;;;;;7.78;1.08;;;;;;;6.02;91.09;98616.84;5194550;28;20045;-83
2022/02/21 07:44:10;;;;;;;8.38;1.30;;;;;;;6.83;84.56;98612.69;5199918;28;20045;-83
2022/02/21 07:46:40;;;;;;;8.95;1.30;;;;;;;7.11;81.40;98618.94;5198500;28;20029;-82
2022/02/21 07:49:10;;;;;;;10.43;1.45;;;;;;;6.58;82.86;98630.44;5197838;28;20042;-82
2022/02/21 07:51:41;;;;;;;10.23;1.42;;;;;;;6.87;81.99;98624.59;5205264;28;20033;-84
2022/02/21 07:54:11;;;;;;;7.72;1.42;;;;;;;6.32;84.43;98630.91;5196948;28;20030;-84
2022/02/21 07:56:41;;;;;;;15.18;1.52;;;;;;;5.85;86.59;98634.94;5199385;28;20467;-83
2022/02/21 07:59:12;;;;;;;5.72;1.38;;;;;;;5.74;87.38;98638.03;5197446;28;20373;-83
2022/02/21 08:01:42;;;;;;;7.72;1.50;;;;;;;5.42;88.63;98640.44;5199109;28;20025;-83
2022/02/21 08:04:12;;;;;;;7.03;1.30;;;;;;;5.13;90.81;98645.25;5203387;28;20025;-83
2022/02/21 08:06:42;;;;;;;12.00;1.50;;;;;;;5.16;90.93;98640.75;5200085;28;20035;-83
2022/02/21 08:09:13;;;;;;;8.35;1.38;;;;;;;5.22;89.89;98640.50;5199472;28;20173;-83
2022/02/21 08:11:43;;;;;;;5.57;1.17;;;;;;;5.35;90.23;98627.84;5198094;28;20093;-83
2022/02/21 08:14:14;;;;;;;8.20;1.35;;;;;;;5.15;90.39;98636.50;5199245;28;20040;-83
2022/02/21 08:16:44;;;;;;;6.20;1.40;;;;;;;5.09;92.03;98639.38;5194346;28;20017;-83
2022/02/21 08:19:15;;;;;;;9.75;1.35;;;;;;;5.20;91.72;98644.91;5196324;28;20086;-83
2022/02/21 08:21:48;;;;;;;14.15;2.40;;;;;;;5.21;91.28;98638.84;5198318;28;20029;-83
2022/02/21 08:24:20;;;;;;;6.70;1.38;;;;;;;5.38;90.90;98658.78;5195903;28;20081;-83
2022/02/21 08:26:50;;;;;;;5.18;1.25;;;;;;;5.30;89.75;98645.34;5194063;28;20101;-82
2022/02/21 08:29:20;;;;;;;10.07;1.52;;;;;;;5.30;91.66;98653.13;5194619;28;20460;-82
2022/02/21 08:31:54;;;;;;;8.43;1.42;;;;;;;5.35;89.48;98654.56;5195487;28;20026;-83
2022/02/21 08:34:24;;;;;;;9.07;1.60;;;;;;;5.38;89.19;98651.00;5199472;28;20026;-83
2022/02/21 08:36:55;;;;;;;8.73;1.13;;;;;;;5.63;88.74;98652.41;5194114;28;20026;-83
2022/02/21 08:39:25;;;;;;;8.40;1.30;;;;;;;6.64;84.43;98645.69;5196203;28;20037;-83
2022/02/21 08:41:56;;;;;;;7.40;1.17;;;;;;;6.66;83.10;98651.63;5189201;28;20022;-83
2022/02/21 08:44:27;;;;;;;9.65;1.83;;;;;;;6.29;85.13;98657.00;5197837;28;20026;-83
2022/02/21 08:46:58;;;;;;;11.68;1.48;;;;;;;6.15;84.39;98662.84;5198145;28;20482;-82
2022/02/21 08:49:28;;;;;;;11.70;1.67;;;;;;;6.06;86.01;98662.47;5192423;28;20026;-83
2022/02/21 08:51:59;;;;;;;12.15;1.60;;;;;;;5.80;85.72;98665.44;5194276;28;20040;-83
2022/02/21 08:54:30;;;;;;;8.05;1.38;;;;;;;5.81;86.81;98664.53;5195170;28;20259;-83
2022/02/21 08:57:00;;;;;;;12.05;1.70;;;;;;;5.59;88.60;98671.59;5196130;28;20029;-83
2022/02/21 08:59:31;;;;;;;11.50;1.42;;;;;;;5.55;88.19;98677.81;5196025;28;20025;-83
2022/02/21 09:02:03;;;;;;;9.82;1.83;;;;;;;5.50;88.47;98661.63;5193386;28;20392;-82
2022/02/21 09:04:33;;;;;;;9.10;1.58;;;;;;;5.59;87.55;98676.78;5200982;28;20040;-83
2022/02/21 09:07:03;;;;;;;9.85;1.63;;;;;;;5.74;86.99;98668.28;5189621;28;20022;-83
2022/02/21 09:09:33;;;;;;;7.13;1.30;;;;;;;5.65;88.12;98674.75;5193386;28;20052;-83
2022/02/21 09:12:06;;;;;;;9.30;1.60;;;;;;;5.73;86.65;98672.63;5193614;28;20026;-83
2022/02/21 09:14:36;;;;;;;7.55;1.67;;;;;;;5.71;86.96;98673.63;5190683;28;20029;-83
2022/02/21 09:17:07;;;;;;;8.55;1.52;;;;;;;5.71;87.15;98673.63;5189734;28;20091;-82
2022/02/21 09:19:37;;;;;;;10.48;1.52;;;;;;;5.84;87.85;98680.78;5199084;28;20035;-82
2022/02/21 09:22:07;;;;;;;10.93;1.63;;;;;;;5.99;85.47;98685.25;5196019;28;20401;-82
2022/02/21 09:24:38;;;;;;;9.23;1.65;;;;;;;5.97;86.30;98675.84;5194346;28;20040;-82
2022/02/21 09:27:08;;;;;;;5.97;1.25;;;;;;;5.95;86.29;98685.44;5196797;28;20445;-82
2022/02/21 09:29:38;;;;;;;7.85;1.60;;;;;;;6.00;86.38;98684.31;5193412;28;20029;-82
2022/02/21 09:32:09;;;;;;;11.23;1.55;;;;;;;5.98;85.82;98677.53;5195492;28;20029;-82
2022/02/21 09:34:40;;;;;;;9.20;1.50;;;;;;;6.02;85.89;98697.19;5188609;28;20277;-83
2022/02/21 09:37:10;;;;;;;7.05;1.60;;;;;;;5.81;84.92;98703.41;5197832;28;20116;-82
2022/02/21 09:39:40;;;;;;;9.10;1.90;;;;;;;5.85;85.64;98691.97;5195279;28;20033;-82
2022/02/21 09:42:11;;;;;;;9.85;1.83;;;;;;;5.83;85.44;98694.66;5210354;23;20291;-77
2022/02/21 09:44:41;;;;;;;9.35;1.60;;;;;;;5.78;85.39;98698.31;5210670;28;20486;-79
2022/02/21 09:47:15;;;;;;;9.10;1.67;;;;;;;5.68;86.65;98690.13;5215728;28;20074;-77
2022/02/21 09:49:45;;;;;;;9.68;1.73;;;;;;;5.81;85.83;98687.84;5211125;28;20029;-78
2022/02/21 09:52:16;;;;;;;8.02;1.42;;;;;;;5.70;86.25;98690.06;5212258;28;20048;-79
2022/02/21 09:54:46;;;;;;;9.18;1.40;;;;;;;5.54;85.29;98687.34;5218988;28;20033;-78
2022/02/21 09:57:17;;;;;;;8.13;1.90;;;;;;;5.68;84.72;98699.66;5216547;28;20021;-77
2022/02/21 09:59:48;;;;;;;8.20;1.40;;;;;;;5.56;85.72;98708.00;5218495;28;20021;-78
2022/02/21 10:02:29;;;;;;;8.00;1.85;;;;;;;5.68;85.96;98689.28;5211222;28;20033;-78
2022/02/21 10:05:26;;;;;;;9.02;1.70;;;;;;;5.78;85.47;98706.09;5206440;28;20033;-77
2022/02/21 10:07:57;;;;;;;7.68;1.50;;;;;;;5.82;85.03;98702.47;5215779;28;20037;-78
2022/02/21 10:10:27;;;;;;;13.35;1.58;;;;;;;5.86;85.60;98714.38;5215705;28;20602;-77
2022/02/21 10:12:58;;;;;;;6.70;1.65;;;;;;;5.96;84.88;98711.31;5218311;28;20024;-77
2022/02/21 10:15:33;;;;;;;8.68;1.70;;;;;;;6.00;84.23;98710.25;5215391;28;20105;-79
2022/02/21 10:18:12;;;;;;;10.82;2.13;;;;;;;6.01;85.31;98718.84;5216746;28;20025;-77
2022/02/21 10:20:57;;;;;;;7.45;1.88;;;;;;;6.00;83.56;98723.22;5207704;28;20033;-77
2022/02/21 10:23:33;;;;;;;12.32;1.80;;;;;;;6.14;84.99;98723.41;5213966;28;20055;-77
2022/02/21 10:26:05;;;;;;;8.18;1.75;;;;;;;6.11;83.56;98720.94;5218470;28;20035;-77
2022/02/21 10:28:38;;;;;;;9.75;1.65;;;;;;;6.09;83.75;98714.16;5210863;28;20083;-77
2022/02/21 10:31:16;;;;;;;8.30;1.85;;;;;;;6.22;83.06;98708.31;5216681;28;20339;-78
2022/02/21 10:33:58;;;;;;;9.07;1.80;;;;;;;6.12;81.28;98717.44;5206098;28;20037;-78
2022/02/21 10:36:31;;;;;;;9.30;1.90;;;;;;;6.17;83.26;98710.28;5206855;28;20033;-77
2022/02/21 10:39:07;;;;;;;14.38;1.65;;;;;;;6.16;80.42;98713.81;5213891;28;20087;-77
2022/02/21 10:41:46;;;;;;;4.15;1.50;;;;;;;6.12;81.58;98712.25;5211330;28;20033;-78
2022/02/21 10:44:28;;;;;;;10.02;1.42;;;;;;;6.14;80.60;98707.84;5213318;28;20052;-77
2022/02/21 10:47:15;;;;;;;8.23;1.67;;;;;;;6.01;81.19;98732.66;5211424;28;20017;-77
2022/02/21 10:49:48;;;;;;;7.32;1.58;;;;;;;6.05;81.22;98723.00;5212337;28;20032;-78
2022/02/21 10:52:23;;;;;;;7.90;1.50;;;;;;;5.90;80.39;98715.94;5207851;28;20057;-77
2022/02/21 10:54:56;;;;;;;8.30;1.73;;;;;;;5.83;80.20;98719.72;5211441;28;20029;-78
2022/02/21 10:57:28;;;;;;;7.47;1.45;;;;;;;5.93;80.00;98731.34;5219120;28;20041;-77
2022/02/21 10:59:58;;;;;;;4.90;1.67;;;;;;;5.87;80.92;98714.31;5215554;28;20044;-77
2022/02/21 11:02:28;;;;;;;11.13;2.10;;;;;;;5.93;80.43;98716.63;5217795;28;20029;-78
2022/02/21 11:05:00;;;;;;;13.70;2.00;;;;;;;5.88;81.69;98717.75;5216819;28;20026;-78
2022/02/21 11:07:31;;;;;;;13.18;2.45;;;;;;;6.01;81.28;98714.53;5213535;28;20048;-78
2022/02/21 11:10:04;;;;;;;11.20;2.30;;;;;;;5.92;83.43;98717.53;5221592;28;20033;-78
2022/02/21 11:12:37;;;;;;;11.45;2.05;;;;;;;5.86;82.23;98706.59;5218714;28;20691;-78
2022/02/21 11:15:08;;;;;;;13.32;2.13;;;;;;;6.05;83.24;98699.66;5219941;28;20029;-77
2022/02/21 11:17:38;;;;;;;8.10;1.88;;;;;;;5.97;82.90;98707.81;5223960;28;20191;-78
2022/02/21 11:20:09;;;;;;;11.48;2.03;;;;;;;5.99;82.60;98702.53;5216988;28;20017;-77
2022/02/21 11:22:40;;;;;;;12.15;2.15;;;;;;;5.96;82.57;98700.94;5217275;28;20032;-78
2022/02/21 11:25:29;;;;;;;8.18;2.00;;;;;;;5.88;81.18;98700.44;5220696;28;20085;-78
2022/02/21 11:28:19;;;;;;;10.70;1.88;;;;;;;5.91;82.26;98702.06;5217336;28;20021;-77
2022/02/21 11:30:52;;;;;;;10.98;2.13;;;;;;;6.01;82.73;98695.53;5218828;28;20044;-77
2022/02/21 11:33:23;;;;;;;7.95;2.10;;;;;;;5.99;82.11;98689.56;5218666;28;20035;-78
2022/02/21 11:36:07;;;;;;;10.07;2.38;;;;;;;5.88;81.80;98684.06;5213223;28;20021;-78
2022/02/21 11:38:41;;;;;;;8.70;1.80;;;;;;;6.03;82.30;98680.72;5220050;28;20029;-77
2022/02/21 11:41:14;;;;;;;8.45;1.50;;;;;;;6.02;81.04;98673.88;5219571;28;20025;-77
2022/02/21 11:43:47;;;;;;;10.88;1.70;;;;;;;5.99;82.33;98671.44;5220503;28;20595;-77
2022/02/21 11:46:25;;;;;;;8.38;1.55;;;;;;;6.00;82.48;98671.38;5214430;28;20426;-78
2022/02/21 11:49:06;;;;;;;5.93;1.73;;;;;;;6.09;81.91;98657.94;5212678;28;20029;-79
2022/02/21 11:51:37;;;;;;;9.10;1.35;;;;;;;6.19;81.72;98650.56;5211168;28;20113;-78
2022/02/21 11:54:13;;;;;;;10.27;1.70;;;;;;;6.10;81.25;98656.22;5219452;28;20081;-77